sensor_id;sensor_type;location;lat;lon;timestamp;pressure;altitude;pressure_sealevel;temperature;humidity
13124;BME280;6627;50.920;12.050;2023-02-28T00:01:25;99024.63;;;11.72;39.22
13124;BME280;6627;50.920;12.050;2023-02-28T00:03:55;99035.97;;;11.47;40.74
13124;BME280;6627;50.920;12.050;2023-02-28T00:06:23;99071.38;;;11.69;40.40
13124;BME280;6627;50.920;12.050;2023-02-28T00:08:51;99101.38;;;11.92;39.61
13124;BME280;6627;50.920;12.050;2023-02-28T00:11:19;99010.66;;;11.51;40.05
13124;BME280;6627;50.920;12.050;2023-02-28T00:13:48;99188.69;;;12.26;39.95
13124;BME280;6627;50.920;12.050;2023-02-28T00:16:18;99213.25;;;12.49;38.97
13124;BME280;6627;50.920;12.050;2023-02-28T00:18:46;99051.66;;;11.63;40.09
13124;BME280;6627;50.920;12.050;2023-02-28T00:21:17;99110.09;;;11.89;39.73
13124;BME280;6627;50.920;12.050;2023-02-28T00:23:45;99102.50;;;11.72;40.54
13124;BME280;6627;50.920;12.050;2023-02-28T00:26:12;99117.03;;;11.95;39.39
13124;BME280;6627;50.920;12.050;2023-02-28T00:28:40;99268.38;;;12.63;39.16
13124;BME280;6627;50.920;12.050;2023-02-28T00:31:07;99011.06;;;11.45;39.88
13124;BME280;6627;50.920;12.050;2023-02-28T00:33:34;99114.25;;;11.67;40.43
13124;BME280;6627;50.920;12.050;2023-02-28T00:36:07;99223.59;;;12.47;39.09
13124;BME280;6627;50.920;12.050;2023-02-28T00:38:36;99241.22;;;12.63;38.88
13124;BME280;6627;50.920;12.050;2023-02-28T00:41:04;99241.50;;;12.48;39.58
13124;BME280;6627;50.920;12.050;2023-02-28T00:43:33;99029.16;;;11.77;39.28
13124;BME280;6627;50.920;12.050;2023-02-28T00:46:01;99079.09;;;11.76;39.65
13124;BME280;6627;50.920;12.050;2023-02-28T00:48:28;99333.41;;;13.01;38.63
13124;BME280;6627;50.920;12.050;2023-02-28T00:50:55;99284.47;;;12.87;38.54
13124;BME280;6627;50.920;12.050;2023-02-28T00:53:22;99205.16;;;12.44;38.86
13124;BME280;6627;50.920;12.050;2023-02-28T00:55:51;99272.00;;;12.72;38.75
13124;BME280;6627;50.920;12.050;2023-02-28T00:58:19;99169.16;;;12.10;39.75
13124;BME280;6627;50.920;12.050;2023-02-28T01:00:46;98994.88;;;11.53;39.83
13124;BME280;6627;50.920;12.050;2023-02-28T01:03:15;99140.22;;;11.73;41.06
13124;BME280;6627;50.920;12.050;2023-02-28T01:05:43;99236.38;;;12.46;39.55
13124;BME280;6627;50.920;12.050;2023-02-28T01:08:10;99250.66;;;12.66;39.08
13124;BME280;6627;50.920;12.050;2023-02-28T01:10:37;99082.97;;;11.89;39.29
13124;BME280;6627;50.920;12.050;2023-02-28T01:13:06;99205.59;;;12.51;38.83
13124;BME280;6627;50.920;12.050;2023-02-28T01:15:33;99228.75;;;12.62;38.73
13124;BME280;6627;50.920;12.050;2023-02-28T01:18:00;99281.88;;;12.96;38.21
13124;BME280;6627;50.920;12.050;2023-02-28T01:20:27;99217.03;;;12.48;39.40
13124;BME280;6627;50.920;12.050;2023-02-28T01:22:55;98808.78;;;10.75;39.92
13124;BME280;6627;50.920;12.050;2023-02-28T01:25:22;98750.53;;;10.17;41.33
13124;BME280;6627;50.920;12.050;2023-02-28T01:27:49;99130.66;;;11.76;40.98
13124;BME280;6627;50.920;12.050;2023-02-28T01:30:17;99042.38;;;11.51;40.47
13124;BME280;6627;50.920;12.050;2023-02-28T01:32:45;98889.91;;;10.99;40.71
13124;BME280;6627;50.920;12.050;2023-02-28T01:35:12;98819.16;;;10.40;41.90
13124;BME280;6627;50.920;12.050;2023-02-28T01:37:40;99052.00;;;11.29;41.47
13124;BME280;6627;50.920;12.050;2023-02-28T01:40:09;99239.16;;;12.27;39.75
13124;BME280;6627;50.920;12.050;2023-02-28T01:42:36;99061.78;;;11.58;40.30
13124;BME280;6627;50.920;12.050;2023-02-28T01:45:20;99051.41;;;11.32;41.05
13124;BME280;6627;50.920;12.050;2023-02-28T01:47:52;99016.88;;;11.38;40.52
13124;BME280;6627;50.920;12.050;2023-02-28T01:50:23;99123.09;;;11.92;39.95
13124;BME280;6627;50.920;12.050;2023-02-28T01:52:59;99095.25;;;11.67;40.29
13124;BME280;6627;50.920;12.050;2023-02-28T01:55:28;99016.16;;;11.32;40.09
13124;BME280;6627;50.920;12.050;2023-02-28T01:58:00;98930.19;;;10.73;41.58
13124;BME280;6627;50.920;12.050;2023-02-28T02:00:31;99018.25;;;11.22;41.13
13124;BME280;6627;50.920;12.050;2023-02-28T02:03:03;99016.88;;;11.38;39.99
13124;BME280;6627;50.920;12.050;2023-02-28T02:05:31;98877.97;;;10.53;41.58
13124;BME280;6627;50.920;12.050;2023-02-28T02:08:05;98795.44;;;10.18;41.78
13124;BME280;6627;50.920;12.050;2023-02-28T02:10:36;99020.94;;;11.08;41.41
13124;BME280;6627;50.920;12.050;2023-02-28T02:13:34;99014.63;;;11.26;40.52
13124;BME280;6627;50.920;12.050;2023-02-28T02:16:19;99160.34;;;11.86;40.47
13124;BME280;6627;50.920;12.050;2023-02-28T02:18:54;99006.41;;;11.31;39.93
13124;BME280;6627;50.920;12.050;2023-02-28T02:21:50;98887.69;;;10.87;40.09
13124;BME280;6627;50.920;12.050;2023-02-28T02:25:11;98854.16;;;10.69;40.21
13124;BME280;6627;50.920;12.050;2023-02-28T02:28:10;98945.03;;;10.75;41.46
13124;BME280;6627;50.920;12.050;2023-02-28T02:31:21;98820.53;;;10.24;41.31
13124;BME280;6627;50.920;12.050;2023-02-28T02:34:27;98826.59;;;10.34;41.05
13124;BME280;6627;50.920;12.050;2023-02-28T02:37:10;98805.25;;;10.14;41.74
13124;BME280;6627;50.920;12.050;2023-02-28T02:39:50;99105.63;;;11.65;40.12
13124;BME280;6627;50.920;12.050;2023-02-28T02:42:27;99034.97;;;11.56;39.29
13124;BME280;6627;50.920;12.050;2023-02-28T02:45:01;99113.63;;;11.89;39.07
13124;BME280;6627;50.920;12.050;2023-02-28T02:47:34;99079.78;;;11.68;39.16
13124;BME280;6627;50.920;12.050;2023-02-28T02:50:11;99016.78;;;11.43;39.43
13124;BME280;6627;50.920;12.050;2023-02-28T02:52:44;98924.72;;;10.92;40.17
13124;BME280;6627;50.920;12.050;2023-02-28T02:55:14;98836.97;;;10.60;40.29
13124;BME280;6627;50.920;12.050;2023-02-28T02:57:48;99041.59;;;11.50;39.74
13124;BME280;6627;50.920;12.050;2023-02-28T03:00:21;98909.34;;;10.87;40.42
13124;BME280;6627;50.920;12.050;2023-02-28T03:02:54;99004.00;;;11.30;39.51
13124;BME280;6627;50.920;12.050;2023-02-28T03:05:27;99050.16;;;11.71;38.88
13124;BME280;6627;50.920;12.050;2023-02-28T03:07:56;98845.44;;;10.72;39.76
13124;BME280;6627;50.920;12.050;2023-02-28T03:10:42;98721.28;;;10.19;40.16
13124;BME280;6627;50.920;12.050;2023-02-28T03:13:49;98934.31;;;11.17;39.75
13124;BME280;6627;50.920;12.050;2023-02-28T03:16:33;98846.94;;;10.78;39.94
13124;BME280;6627;50.920;12.050;2023-02-28T03:19:33;99046.94;;;11.55;39.55
13124;BME280;6627;50.920;12.050;2023-02-28T03:22:23;98929.66;;;11.03;39.92
13124;BME280;6627;50.920;12.050;2023-02-28T03:25:02;99017.47;;;11.35;39.83
13124;BME280;6627;50.920;12.050;2023-02-28T03:27:40;98935.75;;;10.81;40.79
13124;BME280;6627;50.920;12.050;2023-02-28T03:30:15;99040.94;;;11.26;40.07
13124;BME280;6627;50.920;12.050;2023-02-28T03:32:53;98936.63;;;10.77;40.64
13124;BME280;6627;50.920;12.050;2023-02-28T03:35:28;99045.66;;;11.20;40.17
13124;BME280;6627;50.920;12.050;2023-02-28T03:38:07;98984.47;;;11.14;39.69
13124;BME280;6627;50.920;12.050;2023-02-28T03:40:38;98869.81;;;10.72;39.94
13124;BME280;6627;50.920;12.050;2023-02-28T03:43:13;98894.97;;;10.59;40.82
13124;BME280;6627;50.920;12.050;2023-02-28T03:45:45;98829.19;;;10.40;40.53
13124;BME280;6627;50.920;12.050;2023-02-28T03:48:19;98957.50;;;10.76;41.08
13124;BME280;6627;50.920;12.050;2023-02-28T03:50:53;98822.72;;;10.54;40.10
13124;BME280;6627;50.920;12.050;2023-02-28T03:53:30;98989.69;;;11.10;40.09
13124;BME280;6627;50.920;12.050;2023-02-28T03:56:07;98880.81;;;10.62;40.29
13124;BME280;6627;50.920;12.050;2023-02-28T03:58:44;98751.03;;;9.86;41.57
13124;BME280;6627;50.920;12.050;2023-02-28T04:01:20;98964.75;;;10.81;40.95
13124;BME280;6627;50.920;12.050;2023-02-28T04:03:49;98789.19;;;10.04;41.20
13124;BME280;6627;50.920;12.050;2023-02-28T04:06:20;98950.19;;;10.58;41.80
13124;BME280;6627;50.920;12.050;2023-02-28T04:08:50;98857.97;;;10.17;41.85
13124;BME280;6627;50.920;12.050;2023-02-28T04:11:22;98665.44;;;9.12;42.52
13124;BME280;6627;50.920;12.050;2023-02-28T04:13:50;98801.50;;;9.77;42.15
13124;BME280;6627;50.920;12.050;2023-02-28T04:16:17;98849.44;;;9.91;41.84
13124;BME280;6627;50.920;12.050;2023-02-28T04:18:45;98942.91;;;10.40;41.20
13124;BME280;6627;50.920;12.050;2023-02-28T04:21:12;98929.09;;;10.41;41.27
13124;BME280;6627;50.920;12.050;2023-02-28T04:23:40;99023.75;;;10.84;40.61
13124;BME280;6627;50.920;12.050;2023-02-28T04:26:08;99038.09;;;10.84;40.66
13124;BME280;6627;50.920;12.050;2023-02-28T04:28:38;98915.84;;;10.40;40.42
13124;BME280;6627;50.920;12.050;2023-02-28T04:31:05;99099.56;;;11.22;39.60
13124;BME280;6627;50.920;12.050;2023-02-28T04:33:33;98930.16;;;10.59;39.96
13124;BME280;6627;50.920;12.050;2023-02-28T04:36:02;98819.19;;;9.89;41.07
13124;BME280;6627;50.920;12.050;2023-02-28T04:38:32;98860.00;;;9.92;41.33
13124;BME280;6627;50.920;12.050;2023-02-28T04:41:00;98984.88;;;10.75;40.08
13124;BME280;6627;50.920;12.050;2023-02-28T04:43:30;98949.63;;;10.61;39.83
13124;BME280;6627;50.920;12.050;2023-02-28T04:46:01;98905.69;;;10.64;39.14
13124;BME280;6627;50.920;12.050;2023-02-28T04:48:31;98950.47;;;10.75;39.11
13124;BME280;6627;50.920;12.050;2023-02-28T04:51:00;99006.94;;;11.01;39.42
13124;BME280;6627;50.920;12.050;2023-02-28T04:53:29;98913.47;;;10.52;39.65
13124;BME280;6627;50.920;12.050;2023-02-28T04:55:56;98750.16;;;9.91;40.23
13124;BME280;6627;50.920;12.050;2023-02-28T04:58:24;98705.38;;;9.33;41.95
13124;BME280;6627;50.920;12.050;2023-02-28T05:00:54;98613.44;;;9.20;40.69
13124;BME280;6627;50.920;12.050;2023-02-28T05:03:21;98884.41;;;10.06;41.25
13124;BME280;6627;50.920;12.050;2023-02-28T05:05:48;98714.50;;;9.38;41.47
13124;BME280;6627;50.920;12.050;2023-02-28T05:08:15;98670.84;;;9.12;41.94
13124;BME280;6627;50.920;12.050;2023-02-28T05:10:42;98789.28;;;9.80;41.08
13124;BME280;6627;50.920;12.050;2023-02-28T05:13:12;98673.53;;;9.30;40.97
13124;BME280;6627;50.920;12.050;2023-02-28T05:15:39;98745.63;;;9.54;41.18
13124;BME280;6627;50.920;12.050;2023-02-28T05:18:09;98625.88;;;8.83;41.94
13124;BME280;6627;50.920;12.050;2023-02-28T05:20:36;98783.38;;;9.59;41.37
13124;BME280;6627;50.920;12.050;2023-02-28T05:23:03;98703.63;;;9.05;41.81
13124;BME280;6627;50.920;12.050;2023-02-28T05:25:30;98686.31;;;8.87;42.65
13124;BME280;6627;50.920;12.050;2023-02-28T05:27:57;98579.09;;;8.50;42.50
13124;BME280;6627;50.920;12.050;2023-02-28T05:30:25;98901.50;;;9.82;41.28
13124;BME280;6627;50.920;12.050;2023-02-28T05:32:52;98917.72;;;9.82;41.59
13124;BME280;6627;50.920;12.050;2023-02-28T05:35:20;98709.84;;;9.05;41.76
13124;BME280;6627;50.920;12.050;2023-02-28T05:37:47;98748.31;;;9.16;41.58
13124;BME280;6627;50.920;12.050;2023-02-28T05:40:15;98768.63;;;9.32;41.69
13124;BME280;6627;50.920;12.050;2023-02-28T05:42:42;98784.28;;;9.35;41.44
13124;BME280;6627;50.920;12.050;2023-02-28T05:45:10;98526.28;;;8.44;41.26
13124;BME280;6627;50.920;12.050;2023-02-28T05:47:37;98811.88;;;9.32;42.02
13124;BME280;6627;50.920;12.050;2023-02-28T05:50:06;98510.88;;;8.25;41.60
13124;BME280;6627;50.920;12.050;2023-02-28T05:52:36;98465.28;;;7.86;42.84
13124;BME280;6627;50.920;12.050;2023-02-28T05:55:05;98448.34;;;7.62;43.59
13124;BME280;6627;50.920;12.050;2023-02-28T05:57:32;98816.28;;;9.04;43.06
13124;BME280;6627;50.920;12.050;2023-02-28T05:59:59;98837.38;;;9.45;41.46
13124;BME280;6627;50.920;12.050;2023-02-28T06:02:27;98704.50;;;8.81;42.14
13124;BME280;6627;50.920;12.050;2023-02-28T06:04:54;98708.97;;;8.67;42.83
13124;BME280;6627;50.920;12.050;2023-02-28T06:07:21;98978.66;;;9.99;41.29
13124;BME280;6627;50.920;12.050;2023-02-28T06:09:50;98950.28;;;9.96;40.73
13124;BME280;6627;50.920;12.050;2023-02-28T06:12:18;98926.81;;;9.92;40.37
13124;BME280;6627;50.920;12.050;2023-02-28T06:14:45;98699.97;;;8.96;41.19
13124;BME280;6627;50.920;12.050;2023-02-28T06:17:12;99020.72;;;10.10;41.22
13124;BME280;6627;50.920;12.050;2023-02-28T06:19:39;99011.06;;;10.04;41.23
13124;BME280;6627;50.920;12.050;2023-02-28T06:22:07;98966.81;;;10.14;40.03
13124;BME280;6627;50.920;12.050;2023-02-28T06:24:34;98767.09;;;9.07;41.95
13124;BME280;6627;50.920;12.050;2023-02-28T06:27:03;98956.19;;;9.79;41.79
13124;BME280;6627;50.920;12.050;2023-02-28T06:29:31;98582.72;;;8.40;41.69
13124;BME280;6627;50.920;12.050;2023-02-28T06:31:59;99062.19;;;10.29;40.62
13124;BME280;6627;50.920;12.050;2023-02-28T06:34:26;99017.59;;;10.22;40.59
13124;BME280;6627;50.920;12.050;2023-02-28T06:36:54;98921.75;;;9.66;41.51
13124;BME280;6627;50.920;12.050;2023-02-28T06:39:21;98887.63;;;9.70;41.00
13124;BME280;6627;50.920;12.050;2023-02-28T06:41:48;98896.50;;;9.52;41.25
13124;BME280;6627;50.920;12.050;2023-02-28T06:44:18;98564.56;;;8.03;42.94
13124;BME280;6627;50.920;12.050;2023-02-28T06:46:47;98849.44;;;9.10;42.52
13124;BME280;6627;50.920;12.050;2023-02-28T06:49:15;98922.63;;;9.38;42.19
13124;BME280;6627;50.920;12.050;2023-02-28T06:51:44;99145.78;;;10.55;40.92
13124;BME280;6627;50.920;12.050;2023-02-28T06:54:12;98905.19;;;9.49;42.07
13124;BME280;6627;50.920;12.050;2023-02-28T06:56:40;98937.97;;;9.42;42.53
13124;BME280;6627;50.920;12.050;2023-02-28T06:59:07;98984.97;;;9.70;41.72
13124;BME280;6627;50.920;12.050;2023-02-28T07:01:36;98812.38;;;8.92;42.51
13124;BME280;6627;50.920;12.050;2023-02-28T07:04:06;98687.53;;;8.04;44.69
13124;BME280;6627;50.920;12.050;2023-02-28T07:06:33;98931.53;;;9.14;43.39
13124;BME280;6627;50.920;12.050;2023-02-28T07:09:00;99043.44;;;9.66;42.80
13124;BME280;6627;50.920;12.050;2023-02-28T07:11:28;99061.84;;;9.88;42.23
13124;BME280;6627;50.920;12.050;2023-02-28T07:13:57;98965.78;;;9.48;42.38
13124;BME280;6627;50.920;12.050;2023-02-28T07:16:25;98951.31;;;9.33;43.10
13124;BME280;6627;50.920;12.050;2023-02-28T07:18:54;99073.00;;;9.81;43.16
13124;BME280;6627;50.920;12.050;2023-02-28T07:21:22;99058.06;;;9.65;43.17
13124;BME280;6627;50.920;12.050;2023-02-28T07:23:49;98957.81;;;9.32;42.93
13124;BME280;6627;50.920;12.050;2023-02-28T07:26:19;99122.41;;;9.92;43.22
13124;BME280;6627;50.920;12.050;2023-02-28T07:28:48;99100.41;;;9.99;41.93
13124;BME280;6627;50.920;12.050;2023-02-28T07:31:16;99264.28;;;10.68;41.82
13124;BME280;6627;50.920;12.050;2023-02-28T07:33:44;99108.13;;;10.34;40.97
13124;BME280;6627;50.920;12.050;2023-02-28T07:36:15;99053.84;;;10.02;41.60
13124;BME280;6627;50.920;12.050;2023-02-28T07:38:45;99047.69;;;9.96;41.87
13124;BME280;6627;50.920;12.050;2023-02-28T07:41:14;99122.88;;;10.23;41.76
13124;BME280;6627;50.920;12.050;2023-02-28T07:43:42;99063.56;;;10.03;41.22
13124;BME280;6627;50.920;12.050;2023-02-28T07:46:13;99307.22;;;11.23;40.23
13124;BME280;6627;50.920;12.050;2023-02-28T07:48:41;99334.75;;;11.35;40.22
13124;BME280;6627;50.920;12.050;2023-02-28T07:51:09;99329.91;;;11.51;39.87
13124;BME280;6627;50.920;12.050;2023-02-28T07:53:38;99342.00;;;11.58;39.45
13124;BME280;6627;50.920;12.050;2023-02-28T07:56:07;99687.06;;;12.72;38.71
13124;BME280;6627;50.920;12.050;2023-02-28T07:58:34;98872.56;;;10.02;39.40
13124;BME280;6627;50.920;12.050;2023-02-28T08:01:06;98971.63;;;10.17;39.96
13124;BME280;6627;50.920;12.050;2023-02-28T08:03:34;99114.56;;;10.81;39.42
13124;BME280;6627;50.920;12.050;2023-02-28T08:06:02;99082.41;;;10.56;40.12
13124;BME280;6627;50.920;12.050;2023-02-28T08:08:30;99198.72;;;11.09;39.63
13124;BME280;6627;50.920;12.050;2023-02-28T08:11:00;99104.00;;;10.61;40.15
13124;BME280;6627;50.920;12.050;2023-02-28T08:13:29;99041.47;;;10.39;39.87
13124;BME280;6627;50.920;12.050;2023-02-28T08:15:57;99186.56;;;11.25;39.06
13124;BME280;6627;50.920;12.050;2023-02-28T08:18:24;99238.66;;;11.60;38.25
13124;BME280;6627;50.920;12.050;2023-02-28T08:20:51;99068.78;;;10.99;38.24
13124;BME280;6627;50.920;12.050;2023-02-28T08:23:19;99045.72;;;10.82;39.13
13124;BME280;6627;50.920;12.050;2023-02-28T08:25:53;99109.75;;;11.11;38.34
13124;BME280;6627;50.920;12.050;2023-02-28T08:28:23;99026.59;;;10.93;37.91
13124;BME280;6627;50.920;12.050;2023-02-28T08:30:50;98913.56;;;10.47;38.32
13124;BME280;6627;50.920;12.050;2023-02-28T08:33:17;99198.31;;;11.53;38.32
13124;BME280;6627;50.920;12.050;2023-02-28T08:35:45;99176.03;;;11.56;37.86
13124;BME280;6627;50.920;12.050;2023-02-28T08:38:12;99058.34;;;11.06;37.82
13124;BME280;6627;50.920;12.050;2023-02-28T08:40:40;99272.88;;;11.94;37.00
13124;BME280;6627;50.920;12.050;2023-02-28T08:43:08;98909.66;;;10.53;37.91
13124;BME280;6627;50.920;12.050;2023-02-28T08:45:37;98947.25;;;10.73;37.16
13124;BME280;6627;50.920;12.050;2023-02-28T08:48:04;98928.00;;;10.75;37.16
13124;BME280;6627;50.920;12.050;2023-02-28T08:50:31;99127.78;;;11.53;36.73
13124;BME280;6627;50.920;12.050;2023-02-28T08:52:59;99275.16;;;12.19;36.57
13124;BME280;6627;50.920;12.050;2023-02-28T08:55:26;99241.56;;;12.15;36.48
13124;BME280;6627;50.920;12.050;2023-02-28T08:57:54;99406.44;;;12.94;35.73
13124;BME280;6627;50.920;12.050;2023-02-28T09:00:22;98993.75;;;11.41;35.45
13124;BME280;6627;50.920;12.050;2023-02-28T09:02:51;98816.22;;;10.69;36.28
13124;BME280;6627;50.920;12.050;2023-02-28T09:05:18;98965.03;;;11.12;36.19
13124;BME280;6627;50.920;12.050;2023-02-28T09:07:45;99047.84;;;11.65;35.43
13124;BME280;6627;50.920;12.050;2023-02-28T09:10:12;99050.72;;;11.54;36.11
13124;BME280;6627;50.920;12.050;2023-02-28T09:12:39;99170.97;;;12.15;35.54
13124;BME280;6627;50.920;12.050;2023-02-28T09:15:08;99023.22;;;11.61;35.03
13124;BME280;6627;50.920;12.050;2023-02-28T09:17:35;99087.50;;;11.93;34.89
13124;BME280;6627;50.920;12.050;2023-02-28T09:20:06;99079.25;;;11.84;35.74
13124;BME280;6627;50.920;12.050;2023-02-28T09:22:33;98925.69;;;11.56;34.46
13124;BME280;6627;50.920;12.050;2023-02-28T09:25:01;99064.97;;;12.06;34.46
13124;BME280;6627;50.920;12.050;2023-02-28T09:27:29;98942.34;;;11.63;34.25
13124;BME280;6627;50.920;12.050;2023-02-28T09:29:56;99077.03;;;12.14;34.82
13124;BME280;6627;50.920;12.050;2023-02-28T09:32:23;98933.81;;;11.56;34.88
13124;BME280;6627;50.920;12.050;2023-02-28T09:34:51;98924.06;;;11.55;34.90
13124;BME280;6627;50.920;12.050;2023-02-28T09:37:19;99310.84;;;13.14;34.25
13124;BME280;6627;50.920;12.050;2023-02-28T09:39:46;99430.56;;;13.69;33.80
13124;BME280;6627;50.920;12.050;2023-02-28T09:42:21;98809.97;;;11.37;34.21
13124;BME280;6627;50.920;12.050;2023-02-28T09:44:53;99112.38;;;12.64;32.99
13124;BME280;6627;50.920;12.050;2023-02-28T09:47:30;99125.34;;;12.81;32.89
13124;BME280;6627;50.920;12.050;2023-02-28T09:50:08;99066.72;;;12.52;33.49
13124;BME280;6627;50.920;12.050;2023-02-28T09:52:40;99083.69;;;12.72;32.68
13124;BME280;6627;50.920;12.050;2023-02-28T09:55:21;99075.50;;;12.85;32.41
13124;BME280;6627;50.920;12.050;2023-02-28T09:57:51;99038.09;;;12.69;32.56
13124;BME280;6627;50.920;12.050;2023-02-28T10:00:25;99213.88;;;13.46;32.09
13124;BME280;6627;50.920;12.050;2023-02-28T10:03:19;98981.34;;;12.67;32.42
13124;BME280;6627;50.920;12.050;2023-02-28T10:05:59;99258.41;;;13.86;31.67
13124;BME280;6627;50.920;12.050;2023-02-28T10:08:37;98858.59;;;12.43;32.15
13124;BME280;6627;50.920;12.050;2023-02-28T10:11:11;98962.69;;;12.52;33.39
13124;BME280;6627;50.920;12.050;2023-02-28T10:13:52;98838.84;;;12.28;31.85
13124;BME280;6627;50.920;12.050;2023-02-28T10:16:28;98699.78;;;11.64;32.65
13124;BME280;6627;50.920;12.050;2023-02-28T10:19:04;98935.75;;;12.42;32.51
13124;BME280;6627;50.920;12.050;2023-02-28T10:21:38;98893.66;;;12.53;31.68
13124;BME280;6627;50.920;12.050;2023-02-28T10:24:21;98946.69;;;12.73;31.82
13124;BME280;6627;50.920;12.050;2023-02-28T10:27:01;99016.59;;;13.03;31.54
13124;BME280;6627;50.920;12.050;2023-02-28T10:29:33;99012.59;;;13.01;31.61
13124;BME280;6627;50.920;12.050;2023-02-28T10:32:03;98792.50;;;12.25;32.03
13124;BME280;6627;50.920;12.050;2023-02-28T10:34:31;99035.03;;;13.29;31.28
13124;BME280;6627;50.920;12.050;2023-02-28T10:36:59;98846.00;;;12.47;31.47
13124;BME280;6627;50.920;12.050;2023-02-28T10:39:41;99006.44;;;13.18;30.91
13124;BME280;6627;50.920;12.050;2023-02-28T10:42:24;99179.81;;;13.71;31.91
13124;BME280;6627;50.920;12.050;2023-02-28T10:45:11;98971.91;;;13.18;30.67
13124;BME280;6627;50.920;12.050;2023-02-28T10:47:54;98958.44;;;13.13;30.91
13124;BME280;6627;50.920;12.050;2023-02-28T10:50:37;98906.69;;;12.96;31.00
13124;BME280;6627;50.920;12.050;2023-02-28T10:53:32;99066.44;;;13.66;30.78
13124;BME280;6627;50.920;12.050;2023-02-28T10:56:05;98829.69;;;12.78;30.59
13124;BME280;6627;50.920;12.050;2023-02-28T10:58:48;98665.06;;;12.28;30.19
13124;BME280;6627;50.920;12.050;2023-02-28T11:01:18;98862.28;;;13.09;30.32
13124;BME280;6627;50.920;12.050;2023-02-28T11:03:47;98922.56;;;13.33;30.38
13124;BME280;6627;50.920;12.050;2023-02-28T11:06:19;98462.69;;;11.56;31.23
13124;BME280;6627;50.920;12.050;2023-02-28T11:08:51;98876.16;;;13.30;29.83
13124;BME280;6627;50.920;12.050;2023-02-28T11:11:22;99003.44;;;13.81;29.96
13124;BME280;6627;50.920;12.050;2023-02-28T11:13:54;98671.84;;;12.57;29.73
13124;BME280;6627;50.920;12.050;2023-02-28T11:16:33;98993.56;;;13.63;30.87
13124;BME280;6627;50.920;12.050;2023-02-28T11:19:03;98969.44;;;13.70;30.30
13124;BME280;6627;50.920;12.050;2023-02-28T11:21:34;98671.72;;;12.62;30.46
13124;BME280;6627;50.920;12.050;2023-02-28T11:24:20;98765.84;;;13.06;29.93
13124;BME280;6627;50.920;12.050;2023-02-28T11:26:50;98666.78;;;12.64;30.16
13124;BME280;6627;50.920;12.050;2023-02-28T11:29:21;98635.44;;;12.58;30.36
13124;BME280;6627;50.920;12.050;2023-02-28T11:32:05;98896.72;;;13.62;29.57
13124;BME280;6627;50.920;12.050;2023-02-28T11:34:39;98640.56;;;12.59;30.24
13124;BME280;6627;50.920;12.050;2023-02-28T11:37:13;98732.13;;;13.16;29.55
13124;BME280;6627;50.920;12.050;2023-02-28T11:39:41;98803.16;;;13.23;29.96
13124;BME280;6627;50.920;12.050;2023-02-28T11:42:42;99218.25;;;15.11;29.13
13124;BME280;6627;50.920;12.050;2023-02-28T11:45:31;98767.84;;;13.41;29.16
13124;BME280;6627;50.920;12.050;2023-02-28T11:48:16;98818.44;;;13.59;29.74
13124;BME280;6627;50.920;12.050;2023-02-28T11:51:02;98796.19;;;13.57;29.66
13124;BME280;6627;50.920;12.050;2023-02-28T11:54:16;98709.84;;;12.97;30.35
13124;BME280;6627;50.920;12.050;2023-02-28T11:56:52;98894.81;;;13.71;29.85
13124;BME280;6627;50.920;12.050;2023-02-28T11:59:42;98970.66;;;14.04;29.91
13124;BME280;6627;50.920;12.050;2023-02-28T12:02:28;98878.50;;;13.88;29.54
13124;BME280;6627;50.920;12.050;2023-02-28T12:05:24;98849.53;;;13.84;29.24
13124;BME280;6627;50.920;12.050;2023-02-28T12:08:09;98758.72;;;13.36;30.23
13124;BME280;6627;50.920;12.050;2023-02-28T12:11:11;99066.75;;;14.53;29.94
13124;BME280;6627;50.920;12.050;2023-02-28T12:14:03;98829.03;;;13.78;29.73
13124;BME280;6627;50.920;12.050;2023-02-28T12:16:56;98831.56;;;13.66;30.33
13124;BME280;6627;50.920;12.050;2023-02-28T12:19:35;98584.66;;;12.84;29.74
13124;BME280;6627;50.920;12.050;2023-02-28T12:22:29;98702.41;;;13.28;29.85
13124;BME280;6627;50.920;12.050;2023-02-28T12:25:39;98886.22;;;13.86;30.15
13124;BME280;6627;50.920;12.050;2023-02-28T12:28:14;98731.47;;;13.19;30.23
13124;BME280;6627;50.920;12.050;2023-02-28T12:30:51;98656.41;;;12.92;30.48
13124;BME280;6627;50.920;12.050;2023-02-28T12:33:30;98628.59;;;12.86;30.47
13124;BME280;6627;50.920;12.050;2023-02-28T12:36:05;98953.50;;;14.12;30.15
13124;BME280;6627;50.920;12.050;2023-02-28T12:38:44;98667.81;;;13.03;30.68
13124;BME280;6627;50.920;12.050;2023-02-28T12:41:16;98969.72;;;14.34;29.81
13124;BME280;6627;50.920;12.050;2023-02-28T12:43:53;98937.50;;;14.19;30.03
13124;BME280;6627;50.920;12.050;2023-02-28T12:46:28;99057.91;;;14.64;30.17
13124;BME280;6627;50.920;12.050;2023-02-28T12:49:05;98750.91;;;13.61;30.23
13124;BME280;6627;50.920;12.050;2023-02-28T12:51:35;98965.69;;;14.23;30.46
13124;BME280;6627;50.920;12.050;2023-02-28T12:54:16;98840.09;;;13.81;30.53
13124;BME280;6627;50.920;12.050;2023-02-28T12:56:57;99054.56;;;14.59;30.20
13124;BME280;6627;50.920;12.050;2023-02-28T12:59:38;98797.94;;;13.53;30.99
13124;BME280;6627;50.920;12.050;2023-02-28T13:02:40;98722.88;;;13.34;30.69
13124;BME280;6627;50.920;12.050;2023-02-28T13:05:46;98820.06;;;13.69;30.75
13124;BME280;6627;50.920;12.050;2023-02-28T13:08:59;99042.53;;;14.51;30.42
13124;BME280;6627;50.920;12.050;2023-02-28T13:11:31;98878.06;;;14.12;29.85
13124;BME280;6627;50.920;12.050;2023-02-28T13:14:02;98962.00;;;14.28;30.26
13124;BME280;6627;50.920;12.050;2023-02-28T13:16:53;98706.19;;;13.10;31.31
13124;BME280;6627;50.920;12.050;2023-02-28T13:19:24;99078.13;;;14.55;30.95
13124;BME280;6627;50.920;12.050;2023-02-28T13:21:55;98910.72;;;14.04;30.59
13124;BME280;6627;50.920;12.050;2023-02-28T13:24:51;98875.31;;;13.86;30.42
13124;BME280;6627;50.920;12.050;2023-02-28T13:27:35;98981.41;;;14.26;30.55
13124;BME280;6627;50.920;12.050;2023-02-28T13:33:27;98871.31;;;14.19;29.91
13124;BME280;6627;50.920;12.050;2023-02-28T13:36:25;99088.59;;;14.87;30.17
13124;BME280;6627;50.920;12.050;2023-02-28T13:38:55;99023.13;;;14.53;30.61